sensor_id;sensor_type;location;lat;lon;timestamp;pressure;altitude;pressure_sealevel;temperature;humidity
42771;BME280;28426;42.872;25.314;2022-12-29T00:02:07;97909.28;;;2.38;76.59
42771;BME280;28426;42.872;25.314;2022-12-29T00:04:42;97906.41;;;2.41;76.21
42771;BME280;28426;42.872;25.314;2022-12-29T00:07:14;97908.09;;;2.42;76.19
42771;BME280;28426;42.872;25.314;2022-12-29T00:09:48;97910.63;;;2.44;76.06
42771;BME280;28426;42.872;25.314;2022-12-29T00:12:21;97909.78;;;2.43;75.67
42771;BME280;28426;42.872;25.314;2022-12-29T00:14:52;97916.00;;;2.42;75.73
42771;BME280;28426;42.872;25.314;2022-12-29T00:17:36;97922.22;;;2.41;75.51
42771;BME280;28426;42.872;25.314;2022-12-29T00:20:08;97923.91;;;2.42;75.38
42771;BME280;28426;42.872;25.314;2022-12-29T00:23:08;97907.31;;;2.29;75.41
42771;BME280;28426;42.872;25.314;2022-12-29T00:25:53;97936.34;;;2.40;75.10
42771;BME280;28426;42.872;25.314;2022-12-29T00:28:37;97927.72;;;2.38;75.11
42771;BME280;28426;42.872;25.314;2022-12-29T00:31:20;97931.31;;;2.37;75.12
42771;BME280;28426;42.872;25.314;2022-12-29T00:34:03;97940.16;;;2.36;74.83
42771;BME280;28426;42.872;25.314;2022-12-29T00:36:46;97931.78;;;2.31;75.12
42771;BME280;28426;42.872;25.314;2022-12-29T00:39:17;97949.97;;;2.34;74.96
42771;BME280;28426;42.872;25.314;2022-12-29T00:42:06;97951.97;;;2.30;74.58
42771;BME280;28426;42.872;25.314;2022-12-29T00:44:53;97951.28;;;2.28;75.08
42771;BME280;28426;42.872;25.314;2022-12-29T00:47:26;97957.59;;;2.26;74.74
42771;BME280;28426;42.872;25.314;2022-12-29T00:49:57;97964.66;;;2.25;74.79
42771;BME280;28426;42.872;25.314;2022-12-29T00:52:25;97967.38;;;2.24;74.70
42771;BME280;28426;42.872;25.314;2022-12-29T00:54:56;97958.78;;;2.21;74.73
42771;BME280;28426;42.872;25.314;2022-12-29T00:57:32;97960.66;;;2.19;74.85
42771;BME280;28426;42.872;25.314;2022-12-29T01:00:03;97963.41;;;2.18;74.91
42771;BME280;28426;42.872;25.314;2022-12-29T01:02:34;97959.19;;;2.15;74.67
42771;BME280;28426;42.872;25.314;2022-12-29T01:05:05;97951.25;;;2.04;75.04
42771;BME280;28426;42.872;25.314;2022-12-29T01:07:37;97963.75;;;2.13;74.85
42771;BME280;28426;42.872;25.314;2022-12-29T01:10:08;97962.19;;;2.11;75.09
42771;BME280;28426;42.872;25.314;2022-12-29T01:12:41;97966.38;;;2.13;74.99
42771;BME280;28426;42.872;25.314;2022-12-29T01:15:14;97957.53;;;2.14;75.26
42771;BME280;28426;42.872;25.314;2022-12-29T01:17:45;97961.84;;;2.15;75.32
42771;BME280;28426;42.872;25.314;2022-12-29T01:20:15;97963.50;;;2.16;75.41
42771;BME280;28426;42.872;25.314;2022-12-29T01:22:46;97959.19;;;2.15;75.58
42771;BME280;28426;42.872;25.314;2022-12-29T01:25:19;97958.13;;;2.18;75.59
42771;BME280;28426;42.872;25.314;2022-12-29T01:27:54;97954.69;;;2.17;75.36
42771;BME280;28426;42.872;25.314;2022-12-29T01:30:27;97951.81;;;2.20;75.38
42771;BME280;28426;42.872;25.314;2022-12-29T01:32:59;97948.25;;;2.21;75.48
42771;BME280;28426;42.872;25.314;2022-12-29T01:35:29;97952.56;;;2.22;75.37
42771;BME280;28426;42.872;25.314;2022-12-29T01:38:03;97948.84;;;2.25;75.54
42771;BME280;28426;42.872;25.314;2022-12-29T01:40:45;97945.25;;;2.26;75.41
42771;BME280;28426;42.872;25.314;2022-12-29T01:43:41;97951.28;;;2.28;75.51
42771;BME280;28426;42.872;25.314;2022-12-29T01:46:20;97937.13;;;2.29;75.59
42771;BME280;28426;42.872;25.314;2022-12-29T01:48:57;97932.59;;;2.31;75.78
42771;BME280;28426;42.872;25.314;2022-12-29T01:51:33;97935.00;;;2.34;75.83
42771;BME280;28426;42.872;25.314;2022-12-29T01:54:09;97927.97;;;2.35;75.87
42771;BME280;28426;42.872;25.314;2022-12-29T01:56:41;97933.94;;;2.37;75.80
42771;BME280;28426;42.872;25.314;2022-12-29T01:59:20;97908.06;;;2.31;75.56
42771;BME280;28426;42.872;25.314;2022-12-29T02:01:54;97927.50;;;2.41;75.61
42771;BME280;28426;42.872;25.314;2022-12-29T02:04:26;97926.53;;;2.42;75.80
42771;BME280;28426;42.872;25.314;2022-12-29T02:07:02;97913.25;;;2.44;75.82
42771;BME280;28426;42.872;25.314;2022-12-29T02:09:34;97916.75;;;2.44;75.53
42771;BME280;28426;42.872;25.314;2022-12-29T02:12:05;97909.56;;;2.46;75.51
42771;BME280;28426;42.872;25.314;2022-12-29T02:14:38;97902.59;;;2.45;75.61
42771;BME280;28426;42.872;25.314;2022-12-29T02:17:16;97905.13;;;2.47;75.64
42771;BME280;28426;42.872;25.314;2022-12-29T02:23:11;97886.19;;;2.42;75.74
42771;BME280;28426;42.872;25.314;2022-12-29T02:26:03;97897.72;;;2.52;75.71
42771;BME280;28426;42.872;25.314;2022-12-29T02:29:14;97885.72;;;2.48;75.75
42771;BME280;28426;42.872;25.314;2022-12-29T02:31:58;97890.53;;;2.54;75.96
42771;BME280;28426;42.872;25.314;2022-12-29T02:34:39;97884.34;;;2.55;75.95
42771;BME280;28426;42.872;25.314;2022-12-29T02:37:22;97883.25;;;2.58;75.81
42771;BME280;28426;42.872;25.314;2022-12-29T02:40:01;97881.44;;;2.58;75.75
42771;BME280;28426;42.872;25.314;2022-12-29T02:42:42;97875.09;;;2.61;75.83
42771;BME280;28426;42.872;25.314;2022-12-29T02:45:20;97875.00;;;2.63;75.90
42771;BME280;28426;42.872;25.314;2022-12-29T02:48:00;97862.66;;;2.63;75.63
42771;BME280;28426;42.872;25.314;2022-12-29T02:50:37;97869.63;;;2.64;75.70
42771;BME280;28426;42.872;25.314;2022-12-29T02:53:11;97866.97;;;2.64;75.81
42771;BME280;28426;42.872;25.314;2022-12-29T02:55:48;97863.38;;;2.65;75.72
42771;BME280;28426;42.872;25.314;2022-12-29T02:58:17;97867.72;;;2.66;75.85
42771;BME280;28426;42.872;25.314;2022-12-29T03:01:11;97864.13;;;2.67;76.19
42771;BME280;28426;42.872;25.314;2022-12-29T03:04:00;97853.56;;;2.67;76.08
42771;BME280;28426;42.872;25.314;2022-12-29T03:06:46;97849.13;;;2.68;76.24
42771;BME280;28426;42.872;25.314;2022-12-29T03:09:30;97849.13;;;2.68;76.21
42771;BME280;28426;42.872;25.314;2022-12-29T03:12:14;97846.38;;;2.69;76.14
42771;BME280;28426;42.872;25.314;2022-12-29T03:14:55;97848.41;;;2.66;76.20
42771;BME280;28426;42.872;25.314;2022-12-29T03:17:51;97847.22;;;2.70;75.95
42771;BME280;28426;42.872;25.314;2022-12-29T03:20:35;97840.16;;;2.70;75.90
42771;BME280;28426;42.872;25.314;2022-12-29T03:23:08;97834.88;;;2.70;75.94
42771;BME280;28426;42.872;25.314;2022-12-29T03:25:44;97827.56;;;2.63;76.09
42771;BME280;28426;42.872;25.314;2022-12-29T03:28:22;97839.22;;;2.71;75.62
42771;BME280;28426;42.872;25.314;2022-12-29T03:30:55;97841.84;;;2.71;75.78
42771;BME280;28426;42.872;25.314;2022-12-29T03:33:29;97838.38;;;2.71;75.56
42771;BME280;28426;42.872;25.314;2022-12-29T03:36:07;97839.22;;;2.71;75.50
42771;BME280;28426;42.872;25.314;2022-12-29T03:38:44;97826.38;;;2.67;75.76
42771;BME280;28426;42.872;25.314;2022-12-29T03:41:19;97837.50;;;2.70;75.47
42771;BME280;28426;42.872;25.314;2022-12-29T03:43:51;97834.16;;;2.68;75.83
42771;BME280;28426;42.872;25.314;2022-12-29T03:46:22;97838.59;;;2.68;75.60
42771;BME280;28426;42.872;25.314;2022-12-29T03:48:53;97832.59;;;2.66;75.72
42771;BME280;28426;42.872;25.314;2022-12-29T03:51:26;97835.34;;;2.64;75.73
42771;BME280;28426;42.872;25.314;2022-12-29T03:53:57;97838.22;;;2.61;76.22
42771;BME280;28426;42.872;25.314;2022-12-29T03:56:28;97835.09;;;2.56;75.66
42771;BME280;28426;42.872;25.314;2022-12-29T03:58:58;97840.38;;;2.56;75.61
42771;BME280;28426;42.872;25.314;2022-12-29T04:01:34;97843.09;;;2.54;75.67
42771;BME280;28426;42.872;25.314;2022-12-29T04:04:07;97844.19;;;2.52;75.67
42771;BME280;28426;42.872;25.314;2022-12-29T04:06:40;97833.03;;;2.48;75.88
42771;BME280;28426;42.872;25.314;2022-12-29T04:09:12;97832.44;;;2.44;75.92
42771;BME280;28426;42.872;25.314;2022-12-29T04:11:48;97835.19;;;2.43;75.94
42771;BME280;28426;42.872;25.314;2022-12-29T04:14:20;97837.09;;;2.41;75.62
42771;BME280;28426;42.872;25.314;2022-12-29T04:16:52;97834.06;;;2.34;76.17
42771;BME280;28426;42.872;25.314;2022-12-29T04:19:23;97842.09;;;2.32;76.07
42771;BME280;28426;42.872;25.314;2022-12-29T04:21:57;97839.91;;;2.26;75.95
42771;BME280;28426;42.872;25.314;2022-12-29T04:24:29;97847.09;;;2.24;75.98
42771;BME280;28426;42.872;25.314;2022-12-29T04:27:00;97851.72;;;2.20;75.87
42771;BME280;28426;42.872;25.314;2022-12-29T04:29:49;97858.19;;;2.16;75.92
42771;BME280;28426;42.872;25.314;2022-12-29T04:32:44;97856.00;;;2.10;75.81
42771;BME280;28426;42.872;25.314;2022-12-29T04:35:15;97863.41;;;2.05;75.78
42771;BME280;28426;42.872;25.314;2022-12-29T04:37:50;97861.22;;;1.99;75.72
42771;BME280;28426;42.872;25.314;2022-12-29T04:40:21;97857.97;;;1.95;75.44
42771;BME280;28426;42.872;25.314;2022-12-29T04:42:53;97860.00;;;1.91;75.66
42771;BME280;28426;42.872;25.314;2022-12-29T04:45:24;97854.13;;;1.88;75.82
42771;BME280;28426;42.872;25.314;2022-12-29T04:48:06;97859.59;;;1.85;76.05
42771;BME280;28426;42.872;25.314;2022-12-29T04:50:59;97863.28;;;1.82;76.06
42771;BME280;28426;42.872;25.314;2022-12-29T04:53:38;97865.16;;;1.80;76.01
42771;BME280;28426;42.872;25.314;2022-12-29T04:56:10;97856.66;;;1.76;76.06
42771;BME280;28426;42.872;25.314;2022-12-29T04:58:42;97868.97;;;1.76;75.82
42771;BME280;28426;42.872;25.314;2022-12-29T05:01:13;97868.47;;;1.70;76.02
42771;BME280;28426;42.872;25.314;2022-12-29T05:03:44;97868.81;;;1.66;76.10
42771;BME280;28426;42.872;25.314;2022-12-29T05:06:15;97868.91;;;1.64;75.98
42771;BME280;28426;42.872;25.314;2022-12-29T05:08:49;97874.50;;;1.60;75.96
42771;BME280;28426;42.872;25.314;2022-12-29T05:11:20;97882.53;;;1.58;75.99
42771;BME280;28426;42.872;25.314;2022-12-29T05:13:54;97886.41;;;1.52;76.12
42771;BME280;28426;42.872;25.314;2022-12-29T05:16:25;97888.19;;;1.52;75.92
42771;BME280;28426;42.872;25.314;2022-12-29T05:18:57;97889.34;;;1.48;76.25
42771;BME280;28426;42.872;25.314;2022-12-29T05:21:31;97884.53;;;1.41;75.71
42771;BME280;28426;42.872;25.314;2022-12-29T05:24:05;97896.03;;;1.40;75.92
42771;BME280;28426;42.872;25.314;2022-12-29T05:26:36;97902.53;;;1.35;76.08
42771;BME280;28426;42.872;25.314;2022-12-29T05:29:22;97902.84;;;1.30;75.91
42771;BME280;28426;42.872;25.314;2022-12-29T05:31:57;97902.31;;;1.25;75.80
42771;BME280;28426;42.872;25.314;2022-12-29T05:34:28;97893.81;;;1.21;76.28
42771;BME280;28426;42.872;25.314;2022-12-29T05:36:59;97895.81;;;1.17;76.24
42771;BME280;28426;42.872;25.314;2022-12-29T05:39:34;97902.97;;;1.15;76.31
42771;BME280;28426;42.872;25.314;2022-12-29T05:42:07;97904.88;;;1.13;76.08
42771;BME280;28426;42.872;25.314;2022-12-29T05:44:52;97905.94;;;1.11;76.49
42771;BME280;28426;42.872;25.314;2022-12-29T05:47:45;97912.34;;;1.07;76.02
42771;BME280;28426;42.872;25.314;2022-12-29T05:50:47;97915.38;;;1.00;76.22
42771;BME280;28426;42.872;25.314;2022-12-29T05:53:24;97920.84;;;0.97;76.64
42771;BME280;28426;42.872;25.314;2022-12-29T05:56:08;97918.31;;;0.96;76.48
42771;BME280;28426;42.872;25.314;2022-12-29T05:58:39;97916.84;;;0.91;76.50
42771;BME280;28426;42.872;25.314;2022-12-29T06:01:10;97924.63;;;0.93;76.57
42771;BME280;28426;42.872;25.314;2022-12-29T06:03:41;97926.50;;;0.91;76.65
42771;BME280;28426;42.872;25.314;2022-12-29T06:06:15;97923.78;;;0.93;76.70
42771;BME280;28426;42.872;25.314;2022-12-29T06:08:46;97922.81;;;0.94;77.04
42771;BME280;28426;42.872;25.314;2022-12-29T06:11:22;97931.56;;;0.94;77.36
42771;BME280;28426;42.872;25.314;2022-12-29T06:14:00;97930.72;;;0.94;77.38
42771;BME280;28426;42.872;25.314;2022-12-29T06:16:33;97925.44;;;0.94;77.26
42771;BME280;28426;42.872;25.314;2022-12-29T06:19:08;97924.63;;;0.93;77.43
42771;BME280;28426;42.872;25.314;2022-12-29T06:21:40;97934.28;;;0.93;77.34
42771;BME280;28426;42.872;25.314;2022-12-29T06:24:10;97930.81;;;0.92;77.42
42771;BME280;28426;42.872;25.314;2022-12-29T06:26:44;97936.91;;;0.93;77.56
42771;BME280;28426;42.872;25.314;2022-12-29T06:29:17;97931.66;;;0.93;77.51
42771;BME280;28426;42.872;25.314;2022-12-29T06:31:48;97927.56;;;0.88;77.41
42771;BME280;28426;42.872;25.314;2022-12-29T06:34:23;97937.00;;;0.91;77.69
42771;BME280;28426;42.872;25.314;2022-12-29T06:36:54;97932.81;;;0.88;77.95
42771;BME280;28426;42.872;25.314;2022-12-29T06:39:27;97936.38;;;0.87;78.04
42771;BME280;28426;42.872;25.314;2022-12-29T06:42:12;97934.72;;;0.86;78.27
42771;BME280;28426;42.872;25.314;2022-12-29T06:44:49;97931.94;;;0.88;78.33
42771;BME280;28426;42.872;25.314;2022-12-29T06:47:23;97934.72;;;0.86;78.24
42771;BME280;28426;42.872;25.314;2022-12-29T06:49:54;97931.94;;;0.88;78.04
42771;BME280;28426;42.872;25.314;2022-12-29T06:52:25;97932.81;;;0.88;77.91
42771;BME280;28426;42.872;25.314;2022-12-29T06:54:55;97931.03;;;0.89;78.19
42771;BME280;28426;42.872;25.314;2022-12-29T06:57:29;97937.63;;;0.95;78.19
42771;BME280;28426;42.872;25.314;2022-12-29T06:59:59;97930.31;;;1.00;78.34
42771;BME280;28426;42.872;25.314;2022-12-29T07:02:30;97935.75;;;1.10;78.92
42771;BME280;28426;42.872;25.314;2022-12-29T07:05:02;97937.91;;;1.17;79.07
42771;BME280;28426;42.872;25.314;2022-12-29T07:07:34;97945.88;;;1.29;78.77
42771;BME280;28426;42.872;25.314;2022-12-29T07:10:08;97945.03;;;1.41;78.87
42771;BME280;28426;42.872;25.314;2022-12-29T07:12:43;97937.13;;;1.54;78.81
42771;BME280;28426;42.872;25.314;2022-12-29T07:15:17;97946.69;;;1.68;78.84
42771;BME280;28426;42.872;25.314;2022-12-29T07:17:50;97942.25;;;1.82;78.92
42771;BME280;28426;42.872;25.314;2022-12-29T07:20:21;97946.41;;;1.98;78.80
42771;BME280;28426;42.872;25.314;2022-12-29T07:22:55;97941.13;;;2.11;78.51
42771;BME280;28426;42.872;25.314;2022-12-29T07:25:28;97937.47;;;2.25;78.12
42771;BME280;28426;42.872;25.314;2022-12-29T07:28:02;97937.53;;;2.36;77.89
42771;BME280;28426;42.872;25.314;2022-12-29T07:30:32;97935.69;;;2.50;77.52
42771;BME280;28426;42.872;25.314;2022-12-29T07:33:04;97933.06;;;2.61;77.25
42771;BME280;28426;42.872;25.314;2022-12-29T07:35:35;97942.72;;;2.73;77.21
42771;BME280;28426;42.872;25.314;2022-12-29T07:38:05;97952.34;;;2.86;76.98
42771;BME280;28426;42.872;25.314;2022-12-29T07:40:36;97955.84;;;2.98;75.92
42771;BME280;28426;42.872;25.314;2022-12-29T07:43:09;97957.69;;;3.09;75.87
42771;BME280;28426;42.872;25.314;2022-12-29T07:45:48;97953.38;;;3.19;75.55
42771;BME280;28426;42.872;25.314;2022-12-29T07:48:22;97947.16;;;3.32;75.76
42771;BME280;28426;42.872;25.314;2022-12-29T07:50:53;97944.19;;;3.48;75.81
42771;BME280;28426;42.872;25.314;2022-12-29T07:53:24;97955.13;;;3.66;75.48
42771;BME280;28426;42.872;25.314;2022-12-29T07:55:57;97949.34;;;3.84;75.72
42771;BME280;28426;42.872;25.314;2022-12-29T07:58:33;97949.31;;;4.07;75.87
42771;BME280;28426;42.872;25.314;2022-12-29T08:01:10;97944.94;;;4.28;75.65
42771;BME280;28426;42.872;25.314;2022-12-29T08:03:50;97942.38;;;4.50;74.98
42771;BME280;28426;42.872;25.314;2022-12-29T08:06:24;97940.00;;;4.68;74.41
42771;BME280;28426;42.872;25.314;2022-12-29T08:08:56;97941.84;;;4.89;74.29
42771;BME280;28426;42.872;25.314;2022-12-29T08:11:37;97941.97;;;5.08;74.03
42771;BME280;28426;42.872;25.314;2022-12-29T08:14:10;97949.06;;;5.29;74.18
42771;BME280;28426;42.872;25.314;2022-12-29T08:16:43;97952.53;;;5.51;73.93
42771;BME280;28426;42.872;25.314;2022-12-29T08:19:14;97943.69;;;5.72;74.04
42771;BME280;28426;42.872;25.314;2022-12-29T08:21:44;97946.25;;;5.93;73.66
42771;BME280;28426;42.872;25.314;2022-12-29T08:24:15;97949.16;;;6.11;72.99
42771;BME280;28426;42.872;25.314;2022-12-29T08:26:46;97949.47;;;6.28;72.36
42771;BME280;28426;42.872;25.314;2022-12-29T08:29:19;97946.16;;;6.46;71.93
42771;BME280;28426;42.872;25.314;2022-12-29T08:31:50;97939.44;;;6.61;71.69
42771;BME280;28426;42.872;25.314;2022-12-29T08:34:21;97944.91;;;6.79;71.70
42771;BME280;28426;42.872;25.314;2022-12-29T08:36:51;97938.31;;;6.93;71.04
42771;BME280;28426;42.872;25.314;2022-12-29T08:39:22;97935.81;;;7.12;70.81
42771;BME280;28426;42.872;25.314;2022-12-29T08:41:52;97939.81;;;7.26;70.27
42771;BME280;28426;42.872;25.314;2022-12-29T08:44:26;97938.66;;;7.38;69.69
42771;BME280;28426;42.872;25.314;2022-12-29T08:46:57;97936.81;;;7.49;69.04
42771;BME280;28426;42.872;25.314;2022-12-29T08:49:30;97935.97;;;7.58;67.97
42771;BME280;28426;42.872;25.314;2022-12-29T08:52:01;97929.06;;;7.65;67.36
42771;BME280;28426;42.872;25.314;2022-12-29T08:54:36;97931.97;;;7.72;67.18
42771;BME280;28426;42.872;25.314;2022-12-29T08:57:07;97923.44;;;7.78;67.16
42771;BME280;28426;42.872;25.314;2022-12-29T08:59:55;97917.38;;;7.86;66.79
42771;BME280;28426;42.872;25.314;2022-12-29T09:02:29;97915.13;;;7.91;66.04
42771;BME280;28426;42.872;25.314;2022-12-29T09:05:00;97916.34;;;7.97;65.84
42771;BME280;28426;42.872;25.314;2022-12-29T09:07:31;97910.56;;;8.02;65.70
42771;BME280;28426;42.872;25.314;2022-12-29T09:10:03;97905.78;;;8.05;65.41
42771;BME280;28426;42.872;25.314;2022-12-29T09:12:34;97907.03;;;8.11;64.83
42771;BME280;28426;42.872;25.314;2022-12-29T09:15:09;97905.75;;;8.15;64.88
42771;BME280;28426;42.872;25.314;2022-12-29T09:17:40;97901.66;;;8.21;64.89
42771;BME280;28426;42.872;25.314;2022-12-29T09:20:16;97897.56;;;8.27;64.49
42771;BME280;28426;42.872;25.314;2022-12-29T09:22:47;97885.78;;;8.29;63.42
42771;BME280;28426;42.872;25.314;2022-12-29T09:25:18;97888.13;;;8.32;63.25
42771;BME280;28426;42.872;25.314;2022-12-29T09:27:51;97879.03;;;8.35;63.01
42771;BME280;28426;42.872;25.314;2022-12-29T09:30:25;97872.41;;;8.39;62.67
42771;BME280;28426;42.872;25.314;2022-12-29T09:32:55;97873.09;;;8.41;62.14
42771;BME280;28426;42.872;25.314;2022-12-29T09:35:26;97864.13;;;8.42;62.01
42771;BME280;28426;42.872;25.314;2022-12-29T09:37:56;97872.94;;;8.43;61.28
42771;BME280;28426;42.872;25.314;2022-12-29T09:40:30;97869.28;;;8.44;61.50
42771;BME280;28426;42.872;25.314;2022-12-29T09:43:24;97857.66;;;8.45;61.16
42771;BME280;28426;42.872;25.314;2022-12-29T09:46:08;97868.84;;;8.48;60.49
42771;BME280;28426;42.872;25.314;2022-12-29T09:48:47;97850.06;;;8.50;60.16
42771;BME280;28426;42.872;25.314;2022-12-29T09:51:23;97854.56;;;8.49;60.57
42771;BME280;28426;42.872;25.314;2022-12-29T09:53:58;97848.66;;;8.56;60.01
42771;BME280;28426;42.872;25.314;2022-12-29T09:56:30;97828.63;;;8.51;60.21
42771;BME280;28426;42.872;25.314;2022-12-29T09:59:05;97834.75;;;8.62;59.86
42771;BME280;28426;42.872;25.314;2022-12-29T10:01:45;97835.25;;;8.66;60.19
42771;BME280;28426;42.872;25.314;2022-12-29T10:04:17;97807.44;;;8.60;59.94
42771;BME280;28426;42.872;25.314;2022-12-29T10:06:53;97820.19;;;8.74;59.48
42771;BME280;28426;42.872;25.314;2022-12-29T10:09:50;97827.56;;;8.81;59.71
42771;BME280;28426;42.872;25.314;2022-12-29T10:12:28;97821.75;;;8.85;59.38
42771;BME280;28426;42.872;25.314;2022-12-29T10:15:10;97820.31;;;8.91;58.87
42771;BME280;28426;42.872;25.314;2022-12-29T10:17:52;97812.53;;;8.98;59.00
42771;BME280;28426;42.872;25.314;2022-12-29T10:20:28;97810.91;;;9.05;59.65
42771;BME280;28426;42.872;25.314;2022-12-29T10:23:19;97809.97;;;9.14;58.99
42771;BME280;28426;42.872;25.314;2022-12-29T10:25:54;97814.34;;;9.24;58.72
42771;BME280;28426;42.872;25.314;2022-12-29T10:28:33;97817.53;;;9.36;58.10
42771;BME280;28426;42.872;25.314;2022-12-29T10:31:07;97815.59;;;9.46;58.04
42771;BME280;28426;42.872;25.314;2022-12-29T10:33:43;97811.50;;;9.60;57.91
42771;BME280;28426;42.872;25.314;2022-12-29T10:36:17;97810.00;;;9.74;57.82
42771;BME280;28426;42.872;25.314;2022-12-29T10:38:53;97807.41;;;9.91;58.12
42771;BME280;28426;42.872;25.314;2022-12-29T10:41:34;97803.94;;;10.07;57.37
42771;BME280;28426;42.872;25.314;2022-12-29T10:44:09;97801.78;;;10.27;57.08
42771;BME280;28426;42.872;25.314;2022-12-29T10:46:42;97795.81;;;10.50;57.27
42771;BME280;28426;42.872;25.314;2022-12-29T10:49:18;97799.47;;;10.74;56.41
42771;BME280;28426;42.872;25.314;2022-12-29T10:51:50;97800.13;;;10.93;55.22
42771;BME280;28426;42.872;25.314;2022-12-29T10:54:27;97790.06;;;11.11;54.95
42771;BME280;28426;42.872;25.314;2022-12-29T10:57:07;97784.28;;;11.31;55.15
42771;BME280;28426;42.872;25.314;2022-12-29T10:59:38;97782.59;;;11.47;53.44
42771;BME280;28426;42.872;25.314;2022-12-29T11:02:35;97778.31;;;11.61;54.08
42771;BME280;28426;42.872;25.314;2022-12-29T11:05:21;97774.56;;;11.78;53.84
42771;BME280;28426;42.872;25.314;2022-12-29T11:08:04;97776.28;;;11.95;53.87
42771;BME280;28426;42.872;25.314;2022-12-29T11:10:39;97779.91;;;12.10;53.48
42771;BME280;28426;42.872;25.314;2022-12-29T11:13:16;97776.63;;;12.23;52.29
42771;BME280;28426;42.872;25.314;2022-12-29T11:15:50;97770.19;;;12.33;52.29
42771;BME280;28426;42.872;25.314;2022-12-29T11:18:22;97771.63;;;12.43;52.09
42771;BME280;28426;42.872;25.314;2022-12-29T11:20:57;97771.72;;;12.50;51.37
42771;BME280;28426;42.872;25.314;2022-12-29T11:23:30;97767.50;;;12.56;49.65
42771;BME280;28426;42.872;25.314;2022-12-29T11:26:17;97765.09;;;12.61;50.49
42771;BME280;28426;42.872;25.314;2022-12-29T11:29:05;97763.72;;;12.65;49.93
42771;BME280;28426;42.872;25.314;2022-12-29T11:31:41;97759.31;;;12.73;50.93
42771;BME280;28426;42.872;25.314;2022-12-29T11:34:17;97751.56;;;12.78;50.18
42771;BME280;28426;42.872;25.314;2022-12-29T11:36:52;97754.88;;;12.80;50.36
42771;BME280;28426;42.872;25.314;2022-12-29T11:39:28;97761.53;;;12.84;49.77
42771;BME280;28426;42.872;25.314;2022-12-29T11:42:01;97754.97;;;12.87;49.94
42771;BME280;28426;42.872;25.314;2022-12-29T11:44:41;97755.63;;;12.89;49.78
42771;BME280;28426;42.872;25.314;2022-12-29T11:47:26;97748.41;;;12.89;49.85
42771;BME280;28426;42.872;25.314;2022-12-29T11:50:00;97752.13;;;12.88;49.66
42771;BME280;28426;42.872;25.314;2022-12-29T11:52:36;97748.81;;;12.86;49.61
42771;BME280;28426;42.872;25.314;2022-12-29T11:55:18;97744.16;;;12.80;49.66
42771;BME280;28426;42.872;25.314;2022-12-29T11:57:55;97746.03;;;12.79;49.45
42771;BME280;28426;42.872;25.314;2022-12-29T12:00:36;97748.88;;;12.78;49.71
42771;BME280;28426;42.872;25.314;2022-12-29T12:03:10;97746.56;;;12.75;48.69
42771;BME280;28426;42.872;25.314;2022-12-29T12:05:50;97738.72;;;12.73;49.98
42771;BME280;28426;42.872;25.314;2022-12-29T12:08:34;97741.56;;;12.72;49.97
42771;BME280;28426;42.872;25.314;2022-12-29T12:11:10;97744.72;;;12.75;50.53
42771;BME280;28426;42.872;25.314;2022-12-29T12:13:51;97736.13;;;12.80;50.68
42771;BME280;28426;42.872;25.314;2022-12-29T12:16:30;97737.25;;;12.86;50.45
42771;BME280;28426;42.872;25.314;2022-12-29T12:19:15;97732.34;;;12.89;49.58
42771;BME280;28426;42.872;25.314;2022-12-29T12:21:52;97721.28;;;12.92;49.76
42771;BME280;28426;42.872;25.314;2022-12-29T12:24:45;97724.59;;;12.94;48.38
42771;BME280;28426;42.872;25.314;2022-12-29T12:27:20;97722.94;;;12.93;49.26
42771;BME280;28426;42.872;25.314;2022-12-29T12:29:58;97718.94;;;12.89;48.92
42771;BME280;28426;42.872;25.314;2022-12-29T12:32:40;97716.84;;;12.85;48.72
42771;BME280;28426;42.872;25.314;2022-12-29T12:35:14;97719.53;;;12.85;48.99
42771;BME280;28426;42.872;25.314;2022-12-29T12:41:07;97711.94;;;12.73;48.49
42771;BME280;28426;42.872;25.314;2022-12-29T12:43:50;97708.63;;;12.71;49.01
42771;BME280;28426;42.872;25.314;2022-12-29T12:46:37;97712.31;;;12.70;48.86
42771;BME280;28426;42.872;25.314;2022-12-29T12:49:42;97717.84;;;12.68;48.81
42771;BME280;28426;42.872;25.314;2022-12-29T12:52:21;97712.00;;;12.65;48.80
42771;BME280;28426;42.872;25.314;2022-12-29T12:55:22;97724.09;;;12.61;48.70
42771;BME280;28426;42.872;25.314;2022-12-29T12:58:14;97720.97;;;12.57;49.26
42771;BME280;28426;42.872;25.314;2022-12-29T13:01:00;97722.16;;;12.54;49.30
42771;BME280;28426;42.872;25.314;2022-12-29T13:03:49;97727.25;;;12.49;49.37
42771;BME280;28426;42.872;25.314;2022-12-29T13:06:35;97718.94;;;12.44;49.45
42771;BME280;28426;42.872;25.314;2022-12-29T13:09:21;97720.66;;;12.37;49.33
42771;BME280;28426;42.872;25.314;2022-12-29T13:12:05;97721.56;;;12.29;49.83
42771;BME280;28426;42.872;25.314;2022-12-29T13:14:51;97719.63;;;12.23;50.01
42771;BME280;28426;42.872;25.314;2022-12-29T13:17:28;97726.34;;;12.19;50.17
42771;BME280;28426;42.872;25.314;2022-12-29T13:20:15;97723.34;;;12.13;50.45
42771;BME280;28426;42.872;25.314;2022-12-29T13:22:55;97728.41;;;12.08;50.50
42771;BME280;28426;42.872;25.314;2022-12-29T13:25:34;97727.91;;;12.04;50.58
42771;BME280;28426;42.872;25.314;2022-12-29T13:28:13;97737.47;;;11.99;50.57
42771;BME280;28426;42.872;25.314;2022-12-29T13:30:55;97738.03;;;11.94;50.68
42771;BME280;28426;42.872;25.314;2022-12-29T13:33:35;97738.56;;;11.89;50.92
42771;BME280;28426;42.872;25.314;2022-12-29T13:36:20;97742.59;;;11.85;51.36
42771;BME280;28426;42.872;25.314;2022-12-29T13:39:04;97738.78;;;11.80;51.54
42771;BME280;28426;42.872;25.314;2022-12-29T13:41:38;97732.97;;;11.76;51.75
42771;BME280;28426;42.872;25.314;2022-12-29T13:44:17;97739.03;;;11.70;51.94
42771;BME280;28426;42.872;25.314;2022-12-29T13:46:56;97737.03;;;11.63;52.15
42771;BME280;28426;42.872;25.314;2022-12-29T13:49:36;97740.25;;;11.59;52.44
42771;BME280;28426;42.872;25.314;2022-12-29T13:52:12;97730.91;;;11.55;52.71
42771;BME280;28426;42.872;25.314;2022-12-29T13:54:57;97746.66;;;11.49;52.90